sensor_id;sensor_type;location;lat;lon;timestamp;temperature;humidity
27258;DHT22;62045;49.986;8.672;2022-12-28T00:04:51;15.20;63.00
27258;DHT22;62045;49.986;8.672;2022-12-28T00:09:52;15.20;62.90
27258;DHT22;62045;49.986;8.672;2022-12-28T00:14:54;15.20;62.80
27258;DHT22;62045;49.986;8.672;2022-12-28T00:19:54;15.20;62.80
27258;DHT22;62045;49.986;8.672;2022-12-28T00:24:55;15.20;62.80
27258;DHT22;62045;49.986;8.672;2022-12-28T00:29:57;15.10;62.60
27258;DHT22;62045;49.986;8.672;2022-12-28T00:34:59;15.10;62.60
27258;DHT22;62045;49.986;8.672;2022-12-28T00:40:00;15.10;62.50
27258;DHT22;62045;49.986;8.672;2022-12-28T00:45:03;15.10;62.40
27258;DHT22;62045;49.986;8.672;2022-12-28T00:50:04;15.10;62.40
27258;DHT22;62045;49.986;8.672;2022-12-28T00:55:05;15.10;62.40
27258;DHT22;62045;49.986;8.672;2022-12-28T01:00:09;15.10;62.20
27258;DHT22;62045;49.986;8.672;2022-12-28T01:05:10;15.10;62.20
27258;DHT22;62045;49.986;8.672;2022-12-28T01:10:10;15.10;62.20
27258;DHT22;62045;49.986;8.672;2022-12-28T01:15:12;15.10;62.10
27258;DHT22;62045;49.986;8.672;2022-12-28T01:20:14;15.10;62.00
27258;DHT22;62045;49.986;8.672;2022-12-28T01:25:15;15.00;61.90
27258;DHT22;62045;49.986;8.672;2022-12-28T01:30:18;15.00;62.00
27258;DHT22;62045;49.986;8.672;2022-12-28T01:35:19;15.00;61.90
27258;DHT22;62045;49.986;8.672;2022-12-28T01:40:19;15.00;61.90
27258;DHT22;62045;49.986;8.672;2022-12-28T01:45:22;15.00;61.90
27258;DHT22;62045;49.986;8.672;2022-12-28T01:50:26;15.00;61.90
27258;DHT22;62045;49.986;8.672;2022-12-28T01:55:29;15.00;61.80
27258;DHT22;62045;49.986;8.672;2022-12-28T02:00:32;15.00;61.90
27258;DHT22;62045;49.986;8.672;2022-12-28T02:05:36;15.00;61.80
27258;DHT22;62045;49.986;8.672;2022-12-28T02:10:40;15.00;61.80
27258;DHT22;62045;49.986;8.672;2022-12-28T02:15:44;15.00;61.80
27258;DHT22;62045;49.986;8.672;2022-12-28T02:21:05;15.00;61.90
27258;DHT22;62045;49.986;8.672;2022-12-28T02:26:34;15.00;62.10
27258;DHT22;62045;49.986;8.672;2022-12-28T02:31:42;15.00;62.10
27258;DHT22;62045;49.986;8.672;2022-12-28T02:36:48;15.00;62.00
27258;DHT22;62045;49.986;8.672;2022-12-28T02:41:50;15.00;61.90
27258;DHT22;62045;49.986;8.672;2022-12-28T02:46:53;15.00;61.90
27258;DHT22;62045;49.986;8.672;2022-12-28T02:52:00;15.10;62.00
27258;DHT22;62045;49.986;8.672;2022-12-28T02:57:10;15.10;61.90
27258;DHT22;62045;49.986;8.672;2022-12-28T03:02:27;15.10;61.80
27258;DHT22;62045;49.986;8.672;2022-12-28T03:07:36;15.10;61.70
27258;DHT22;62045;49.986;8.672;2022-12-28T03:12:45;15.10;61.60
27258;DHT22;62045;49.986;8.672;2022-12-28T03:17:50;15.00;61.60
27258;DHT22;62045;49.986;8.672;2022-12-28T03:22:52;15.00;61.40
27258;DHT22;62045;49.986;8.672;2022-12-28T03:27:55;15.00;61.50
27258;DHT22;62045;49.986;8.672;2022-12-28T03:33:02;15.00;61.40
27258;DHT22;62045;49.986;8.672;2022-12-28T03:38:03;15.00;61.40
27258;DHT22;62045;49.986;8.672;2022-12-28T03:43:09;15.00;61.40
27258;DHT22;62045;49.986;8.672;2022-12-28T03:48:13;15.00;61.40
27258;DHT22;62045;49.986;8.672;2022-12-28T03:53:15;15.00;61.30
27258;DHT22;62045;49.986;8.672;2022-12-28T03:58:17;15.00;61.30
27258;DHT22;62045;49.986;8.672;2022-12-28T04:03:20;15.00;61.20
27258;DHT22;62045;49.986;8.672;2022-12-28T04:08:21;15.00;61.20
27258;DHT22;62045;49.986;8.672;2022-12-28T04:13:22;14.90;61.10
27258;DHT22;62045;49.986;8.672;2022-12-28T04:18:33;14.90;61.20
27258;DHT22;62045;49.986;8.672;2022-12-28T04:23:34;15.00;61.20
27258;DHT22;62045;49.986;8.672;2022-12-28T04:29:04;15.00;61.20
27258;DHT22;62045;49.986;8.672;2022-12-28T04:34:06;14.90;61.20
27258;DHT22;62045;49.986;8.672;2022-12-28T04:39:11;14.90;61.10
27258;DHT22;62045;49.986;8.672;2022-12-28T04:44:12;14.90;61.10
27258;DHT22;62045;49.986;8.672;2022-12-28T04:49:14;14.90;61.10
27258;DHT22;62045;49.986;8.672;2022-12-28T04:54:14;14.90;61.10
27258;DHT22;62045;49.986;8.672;2022-12-28T04:59:15;14.90;61.10
27258;DHT22;62045;49.986;8.672;2022-12-28T05:04:17;14.90;61.10
27258;DHT22;62045;49.986;8.672;2022-12-28T05:09:18;14.90;61.10
27258;DHT22;62045;49.986;8.672;2022-12-28T05:14:18;14.90;61.00
27258;DHT22;62045;49.986;8.672;2022-12-28T05:19:21;14.90;61.10
27258;DHT22;62045;49.986;8.672;2022-12-28T05:24:21;14.90;61.10
27258;DHT22;62045;49.986;8.672;2022-12-28T05:29:22;14.90;61.10
27258;DHT22;62045;49.986;8.672;2022-12-28T05:34:24;14.90;61.10
27258;DHT22;62045;49.986;8.672;2022-12-28T05:39:25;14.90;61.10
27258;DHT22;62045;49.986;8.672;2022-12-28T05:44:25;14.90;61.00
27258;DHT22;62045;49.986;8.672;2022-12-28T05:49:27;14.90;61.10
27258;DHT22;62045;49.986;8.672;2022-12-28T05:54:28;14.90;61.10
27258;DHT22;62045;49.986;8.672;2022-12-28T05:59:29;14.90;61.10
27258;DHT22;62045;49.986;8.672;2022-12-28T06:04:31;14.90;61.10
27258;DHT22;62045;49.986;8.672;2022-12-28T06:09:31;14.90;61.50
27258;DHT22;62045;49.986;8.672;2022-12-28T06:14:32;14.90;61.50
27258;DHT22;62045;49.986;8.672;2022-12-28T06:19:34;14.90;61.40
27258;DHT22;62045;49.986;8.672;2022-12-28T06:24:35;14.90;61.30
27258;DHT22;62045;49.986;8.672;2022-12-28T06:29:35;15.00;61.30
27258;DHT22;62045;49.986;8.672;2022-12-28T06:34:37;15.00;61.30
27258;DHT22;62045;49.986;8.672;2022-12-28T06:39:38;15.00;61.30
27258;DHT22;62045;49.986;8.672;2022-12-28T06:44:39;15.00;61.30
27258;DHT22;62045;49.986;8.672;2022-12-28T06:49:41;15.00;61.30
27258;DHT22;62045;49.986;8.672;2022-12-28T06:54:41;15.00;61.30
27258;DHT22;62045;49.986;8.672;2022-12-28T06:59:42;15.00;61.30
27258;DHT22;62045;49.986;8.672;2022-12-28T07:04:44;14.90;61.20
27258;DHT22;62045;49.986;8.672;2022-12-28T07:09:45;14.90;61.30
27258;DHT22;62045;49.986;8.672;2022-12-28T07:14:45;14.90;61.10
27258;DHT22;62045;49.986;8.672;2022-12-28T07:19:47;14.90;61.10
27258;DHT22;62045;49.986;8.672;2022-12-28T07:24:48;14.90;61.10
27258;DHT22;62045;49.986;8.672;2022-12-28T07:29:49;14.90;61.20
27258;DHT22;62045;49.986;8.672;2022-12-28T07:34:51;14.90;61.20
27258;DHT22;62045;49.986;8.672;2022-12-28T07:39:51;14.90;61.20
27258;DHT22;62045;49.986;8.672;2022-12-28T07:44:52;14.90;61.20
27258;DHT22;62045;49.986;8.672;2022-12-28T07:49:54;14.90;61.20
27258;DHT22;62045;49.986;8.672;2022-12-28T07:54:55;14.90;61.20
27258;DHT22;62045;49.986;8.672;2022-12-28T07:59:55;14.90;61.20
27258;DHT22;62045;49.986;8.672;2022-12-28T08:04:57;14.90;61.20
27258;DHT22;62045;49.986;8.672;2022-12-28T08:09:58;14.90;61.20
27258;DHT22;62045;49.986;8.672;2022-12-28T08:14:59;14.90;61.20
27258;DHT22;62045;49.986;8.672;2022-12-28T08:20:01;14.90;61.20
27258;DHT22;62045;49.986;8.672;2022-12-28T08:25:02;14.90;61.20
27258;DHT22;62045;49.986;8.672;2022-12-28T08:30:05;14.90;62.00
27258;DHT22;62045;49.986;8.672;2022-12-28T08:35:08;14.90;61.30
27258;DHT22;62045;49.986;8.672;2022-12-28T08:40:09;14.90;61.40
27258;DHT22;62045;49.986;8.672;2022-12-28T08:45:10;14.90;61.40
27258;DHT22;62045;49.986;8.672;2022-12-28T08:50:12;14.90;61.40
27258;DHT22;62045;49.986;8.672;2022-12-28T08:55:13;14.90;61.40
27258;DHT22;62045;49.986;8.672;2022-12-28T09:00:14;14.90;63.40
27258;DHT22;62045;49.986;8.672;2022-12-28T09:05:17;15.00;62.50
27258;DHT22;62045;49.986;8.672;2022-12-28T09:10:17;15.10;61.20
27258;DHT22;62045;49.986;8.672;2022-12-28T09:15:18;15.10;58.50
27258;DHT22;62045;49.986;8.672;2022-12-28T09:20:20;15.10;58.10
27258;DHT22;62045;49.986;8.672;2022-12-28T09:25:21;15.00;57.70
27258;DHT22;62045;49.986;8.672;2022-12-28T09:30:21;15.00;57.30
27258;DHT22;62045;49.986;8.672;2022-12-28T09:35:24;15.00;57.20
27258;DHT22;62045;49.986;8.672;2022-12-28T09:40:24;14.90;57.20
27258;DHT22;62045;49.986;8.672;2022-12-28T09:45:25;15.00;57.80
27258;DHT22;62045;49.986;8.672;2022-12-28T09:50:30;15.00;58.10
27258;DHT22;62045;49.986;8.672;2022-12-28T09:55:31;15.00;58.20
27258;DHT22;62045;49.986;8.672;2022-12-28T10:00:37;15.00;58.30
27258;DHT22;62045;49.986;8.672;2022-12-28T10:05:40;15.00;58.40
27258;DHT22;62045;49.986;8.672;2022-12-28T10:10:41;15.00;58.50
27258;DHT22;62045;49.986;8.672;2022-12-28T10:15:43;15.00;58.60
27258;DHT22;62045;49.986;8.672;2022-12-28T10:20:45;15.10;58.60
27258;DHT22;62045;49.986;8.672;2022-12-28T10:25:47;15.00;58.50
27258;DHT22;62045;49.986;8.672;2022-12-28T10:31:02;15.10;58.60
27258;DHT22;62045;49.986;8.672;2022-12-28T10:36:08;15.00;58.40
27258;DHT22;62045;49.986;8.672;2022-12-28T10:41:12;15.00;58.60
27258;DHT22;62045;49.986;8.672;2022-12-28T10:46:16;15.10;58.60
27258;DHT22;62045;49.986;8.672;2022-12-28T10:51:20;15.10;59.00
27258;DHT22;62045;49.986;8.672;2022-12-28T10:56:24;15.10;59.00
27258;DHT22;62045;49.986;8.672;2022-12-28T11:01:26;15.10;59.10
27258;DHT22;62045;49.986;8.672;2022-12-28T11:06:29;15.10;59.20
27258;DHT22;62045;49.986;8.672;2022-12-28T11:11:31;15.10;59.50
27258;DHT22;62045;49.986;8.672;2022-12-28T11:16:35;15.20;60.30
27258;DHT22;62045;49.986;8.672;2022-12-28T11:21:37;15.30;60.30
27258;DHT22;62045;49.986;8.672;2022-12-28T11:26:41;15.30;60.20
27258;DHT22;62045;49.986;8.672;2022-12-28T11:31:43;15.30;60.10
27258;DHT22;62045;49.986;8.672;2022-12-28T11:36:47;15.30;60.20
27258;DHT22;62045;49.986;8.672;2022-12-28T11:41:48;15.30;60.20
27258;DHT22;62045;49.986;8.672;2022-12-28T11:47:01;15.20;60.20
27258;DHT22;62045;49.986;8.672;2022-12-28T11:57:44;15.20;60.30
27258;DHT22;62045;49.986;8.672;2022-12-28T12:02:47;15.20;60.30
27258;DHT22;62045;49.986;8.672;2022-12-28T12:07:47;15.20;60.30
27258;DHT22;62045;49.986;8.672;2022-12-28T12:12:51;15.20;60.30
27258;DHT22;62045;49.986;8.672;2022-12-28T12:17:55;15.20;60.30
27258;DHT22;62045;49.986;8.672;2022-12-28T12:23:04;15.20;60.40
27258;DHT22;62045;49.986;8.672;2022-12-28T12:28:15;15.20;60.40
27258;DHT22;62045;49.986;8.672;2022-12-28T12:33:24;15.20;61.50
27258;DHT22;62045;49.986;8.672;2022-12-28T12:38:37;15.40;62.00
27258;DHT22;62045;49.986;8.672;2022-12-28T12:43:44;15.50;61.60
27258;DHT22;62045;49.986;8.672;2022-12-28T12:54:28;15.50;61.40
27258;DHT22;62045;49.986;8.672;2022-12-28T12:59:48;15.50;61.60
27258;DHT22;62045;49.986;8.672;2022-12-28T13:04:52;15.50;61.60
27258;DHT22;62045;49.986;8.672;2022-12-28T13:09:55;15.50;61.80
27258;DHT22;62045;49.986;8.672;2022-12-28T13:14:58;15.60;65.00
27258;DHT22;62045;49.986;8.672;2022-12-28T13:20:16;15.60;63.50
27258;DHT22;62045;49.986;8.672;2022-12-28T13:25:28;15.60;63.00
27258;DHT22;62045;49.986;8.672;2022-12-28T13:30:31;15.60;62.70
27258;DHT22;62045;49.986;8.672;2022-12-28T13:35:32;15.60;63.60
27258;DHT22;62045;49.986;8.672;2022-12-28T13:40:34;15.50;63.80
27258;DHT22;62045;49.986;8.672;2022-12-28T13:45:38;15.60;64.30
27258;DHT22;62045;49.986;8.672;2022-12-28T13:50:39;15.50;63.30
27258;DHT22;62045;49.986;8.672;2022-12-28T13:55:42;15.60;66.40
27258;DHT22;62045;49.986;8.672;2022-12-28T14:00:46;15.60;66.90
27258;DHT22;62045;49.986;8.672;2022-12-28T14:05:50;15.70;66.60
27258;DHT22;62045;49.986;8.672;2022-12-28T14:10:51;15.70;66.50
27258;DHT22;62045;49.986;8.672;2022-12-28T14:15:54;15.70;65.70
27258;DHT22;62045;49.986;8.672;2022-12-28T14:20:56;15.60;65.30
27258;DHT22;62045;49.986;8.672;2022-12-28T14:25:59;15.60;64.90
27258;DHT22;62045;49.986;8.672;2022-12-28T14:31:02;15.60;64.60
27258;DHT22;62045;49.986;8.672;2022-12-28T14:36:05;15.60;64.50
27258;DHT22;62045;49.986;8.672;2022-12-28T14:41:16;15.50;64.10
27258;DHT22;62045;49.986;8.672;2022-12-28T14:46:30;15.50;64.00
27258;DHT22;62045;49.986;8.672;2022-12-28T14:51:31;15.50;64.80
27258;DHT22;62045;49.986;8.672;2022-12-28T14:56:33;15.50;64.70
27258;DHT22;62045;49.986;8.672;2022-12-28T15:01:43;15.60;64.70
27258;DHT22;62045;49.986;8.672;2022-12-28T15:06:44;15.60;65.00
27258;DHT22;62045;49.986;8.672;2022-12-28T15:11:45;15.60;64.70
27258;DHT22;62045;49.986;8.672;2022-12-28T15:16:47;15.60;64.50
27258;DHT22;62045;49.986;8.672;2022-12-28T15:21:47;15.50;64.40
27258;DHT22;62045;49.986;8.672;2022-12-28T15:26:48;15.50;64.30
27258;DHT22;62045;49.986;8.672;2022-12-28T15:31:50;15.50;64.30
27258;DHT22;62045;49.986;8.672;2022-12-28T15:36:51;15.50;64.30
27258;DHT22;62045;49.986;8.672;2022-12-28T15:41:52;15.50;64.40
27258;DHT22;62045;49.986;8.672;2022-12-28T15:46:54;15.40;64.20
27258;DHT22;62045;49.986;8.672;2022-12-28T15:51:54;15.40;64.10
27258;DHT22;62045;49.986;8.672;2022-12-28T15:56:55;15.40;64.10
27258;DHT22;62045;49.986;8.672;2022-12-28T16:01:57;15.40;64.30
27258;DHT22;62045;49.986;8.672;2022-12-28T16:06:58;15.40;64.20
27258;DHT22;62045;49.986;8.672;2022-12-28T16:11:59;15.50;64.20
27258;DHT22;62045;49.986;8.672;2022-12-28T16:17:01;15.50;64.10
27258;DHT22;62045;49.986;8.672;2022-12-28T16:22:01;15.50;64.00
27258;DHT22;62045;49.986;8.672;2022-12-28T16:27:02;15.50;64.00
27258;DHT22;62045;49.986;8.672;2022-12-28T16:32:05;15.50;63.90
27258;DHT22;62045;49.986;8.672;2022-12-28T16:37:06;15.50;63.90
27258;DHT22;62045;49.986;8.672;2022-12-28T16:42:06;15.50;63.90
27258;DHT22;62045;49.986;8.672;2022-12-28T16:47:08;15.50;64.20
27258;DHT22;62045;49.986;8.672;2022-12-28T16:52:09;15.40;64.20
27258;DHT22;62045;49.986;8.672;2022-12-28T16:57:10;15.40;64.30
27258;DHT22;62045;49.986;8.672;2022-12-28T17:02:12;15.50;66.20
27258;DHT22;62045;49.986;8.672;2022-12-28T17:07:13;15.60;67.20
27258;DHT22;62045;49.986;8.672;2022-12-28T17:12:13;15.70;66.90
27258;DHT22;62045;49.986;8.672;2022-12-28T17:17:15;15.70;66.20
27258;DHT22;62045;49.986;8.672;2022-12-28T17:22:16;15.70;65.70
27258;DHT22;62045;49.986;8.672;2022-12-28T17:27:17;15.70;65.40
27258;DHT22;62045;49.986;8.672;2022-12-28T17:32:20;15.60;65.10
27258;DHT22;62045;49.986;8.672;2022-12-28T17:37:20;15.60;64.90
27258;DHT22;62045;49.986;8.672;2022-12-28T17:42:21;15.60;64.90
27258;DHT22;62045;49.986;8.672;2022-12-28T17:47:23;15.60;64.80
27258;DHT22;62045;49.986;8.672;2022-12-28T17:52:24;15.60;64.80
27258;DHT22;62045;49.986;8.672;2022-12-28T17:57:24;15.50;64.80
27258;DHT22;62045;49.986;8.672;2022-12-28T18:02:26;15.50;64.60
27258;DHT22;62045;49.986;8.672;2022-12-28T18:07:27;15.50;64.60
27258;DHT22;62045;49.986;8.672;2022-12-28T18:12:28;15.50;64.60
27258;DHT22;62045;49.986;8.672;2022-12-28T18:17:30;15.50;64.50
27258;DHT22;62045;49.986;8.672;2022-12-28T18:22:31;15.50;64.40
27258;DHT22;62045;49.986;8.672;2022-12-28T18:27:34;15.50;66.10
27258;DHT22;62045;49.986;8.672;2022-12-28T18:32:36;15.60;66.40
27258;DHT22;62045;49.986;8.672;2022-12-28T18:37:36;15.60;65.80
27258;DHT22;62045;49.986;8.672;2022-12-28T18:42:37;15.60;65.60
27258;DHT22;62045;49.986;8.672;2022-12-28T18:47:39;15.60;65.40
27258;DHT22;62045;49.986;8.672;2022-12-28T18:52:40;15.60;65.30
27258;DHT22;62045;49.986;8.672;2022-12-28T18:57:41;15.60;65.20
27258;DHT22;62045;49.986;8.672;2022-12-28T19:02:43;15.60;65.00
27258;DHT22;62045;49.986;8.672;2022-12-28T19:07:44;15.60;64.90
27258;DHT22;62045;49.986;8.672;2022-12-28T19:12:44;15.60;64.80
27258;DHT22;62045;49.986;8.672;2022-12-28T19:17:46;15.60;64.80
27258;DHT22;62045;49.986;8.672;2022-12-28T19:22:47;15.60;64.90
27258;DHT22;62045;49.986;8.672;2022-12-28T19:27:48;15.60;64.90
27258;DHT22;62045;49.986;8.672;2022-12-28T19:32:50;15.60;64.80
27258;DHT22;62045;49.986;8.672;2022-12-28T19:37:51;15.70;64.60
27258;DHT22;62045;49.986;8.672;2022-12-28T19:42:52;15.70;64.50
27258;DHT22;62045;49.986;8.672;2022-12-28T19:47:54;15.70;64.40
27258;DHT22;62045;49.986;8.672;2022-12-28T19:52:55;15.70;65.20
27258;DHT22;62045;49.986;8.672;2022-12-28T19:57:55;15.70;64.30
27258;DHT22;62045;49.986;8.672;2022-12-28T20:02:58;15.70;64.30
27258;DHT22;62045;49.986;8.672;2022-12-28T20:07:58;15.70;64.20
27258;DHT22;62045;49.986;8.672;2022-12-28T20:12:59;15.70;64.10
27258;DHT22;62045;49.986;8.672;2022-12-28T20:18:01;15.70;64.10
27258;DHT22;62045;49.986;8.672;2022-12-28T20:23:02;15.70;64.10
27258;DHT22;62045;49.986;8.672;2022-12-28T20:28:03;15.70;64.00
27258;DHT22;62045;49.986;8.672;2022-12-28T20:33:05;15.70;63.90
27258;DHT22;62045;49.986;8.672;2022-12-28T20:38:06;15.70;63.80
27258;DHT22;62045;49.986;8.672;2022-12-28T20:43:08;15.60;63.80
27258;DHT22;62045;49.986;8.672;2022-12-28T20:48:10;15.60;63.70
27258;DHT22;62045;49.986;8.672;2022-12-28T20:53:11;15.70;63.80
27258;DHT22;62045;49.986;8.672;2022-12-28T20:58:12;15.70;63.80
27258;DHT22;62045;49.986;8.672;2022-12-28T21:03:14;15.70;63.80
27258;DHT22;62045;49.986;8.672;2022-12-28T21:08:15;15.60;63.70
27258;DHT22;62045;49.986;8.672;2022-12-28T21:13:15;15.60;63.70
27258;DHT22;62045;49.986;8.672;2022-12-28T21:18:18;15.60;63.60
27258;DHT22;62045;49.986;8.672;2022-12-28T21:23:18;15.60;64.70
27258;DHT22;62045;49.986;8.672;2022-12-28T21:28:19;15.70;64.40
27258;DHT22;62045;49.986;8.672;2022-12-28T21:33:21;15.70;65.80
27258;DHT22;62045;49.986;8.672;2022-12-28T21:38:22;15.70;66.20
27258;DHT22;62045;49.986;8.672;2022-12-28T21:43:23;15.70;66.00
27258;DHT22;62045;49.986;8.672;2022-12-28T21:48:25;15.80;65.70
27258;DHT22;62045;49.986;8.672;2022-12-28T21:53:26;15.70;65.30
27258;DHT22;62045;49.986;8.672;2022-12-28T21:58:27;15.70;65.10
27258;DHT22;62045;49.986;8.672;2022-12-28T22:03:29;15.70;65.00
27258;DHT22;62045;49.986;8.672;2022-12-28T22:08:30;15.60;64.80
27258;DHT22;62045;49.986;8.672;2022-12-28T22:13:31;15.60;64.70
27258;DHT22;62045;49.986;8.672;2022-12-28T22:18:33;15.60;64.50
27258;DHT22;62045;49.986;8.672;2022-12-28T22:23:34;15.60;64.40
27258;DHT22;62045;49.986;8.672;2022-12-28T22:28:35;15.60;64.40
27258;DHT22;62045;49.986;8.672;2022-12-28T22:33:37;15.60;64.30
27258;DHT22;62045;49.986;8.672;2022-12-28T22:38:38;15.60;64.20
27258;DHT22;62045;49.986;8.672;2022-12-28T22:43:38;15.60;64.20
27258;DHT22;62045;49.986;8.672;2022-12-28T22:48:40;15.60;64.10
27258;DHT22;62045;49.986;8.672;2022-12-28T22:53:42;15.60;64.20
27258;DHT22;62045;49.986;8.672;2022-12-28T22:58:42;15.60;64.50
27258;DHT22;62045;49.986;8.672;2022-12-28T23:03:46;15.50;64.50
27258;DHT22;62045;49.986;8.672;2022-12-28T23:08:47;15.60;64.50
27258;DHT22;62045;49.986;8.672;2022-12-28T23:13:47;15.50;64.30
27258;DHT22;62045;49.986;8.672;2022-12-28T23:18:50;15.60;64.20
27258;DHT22;62045;49.986;8.672;2022-12-28T23:23:50;15.60;64.10
27258;DHT22;62045;49.986;8.672;2022-12-28T23:28:51;15.60;64.00
27258;DHT22;62045;49.986;8.672;2022-12-28T23:33:53;15.60;64.00
27258;DHT22;62045;49.986;8.672;2022-12-28T23:38:54;15.60;63.90
27258;DHT22;62045;49.986;8.672;2022-12-28T23:43:54;15.60;63.80
27258;DHT22;62045;49.986;8.672;2022-12-28T23:48:56;15.60;63.80
27258;DHT22;62045;49.986;8.672;2022-12-28T23:53:57;15.60;63.80
27258;DHT22;62045;49.986;8.672;2022-12-28T23:58:58;15.60;63.80
